HISTORICAL SENSOR DATA

Sensor Data Report

DB LIVE
CURRENT TIME--:--:--
DEVICE NETWORK Gateway Status
13 ESP · realtime ~1s · history 60s
Weather WS-MOD-01
ONLINE
Actuator ACT-MOD-01
OFFLINE
Mainboard L3 MB-L3-01
ONLINE
Mainboard L5 MB-L5-01
ONLINE
Remote AC AC-REMOTE-01
OFFLINE
PZEM L3-01 PWR-L3-01
OFFLINE
PZEM L3-02 PWR-L3-02
OFFLINE
PZEM L3-03 PWR-L3-03
OFFLINE
PZEM L3-04 PWR-L3-04
OFFLINE
PZEM L5-01 PWR-L5-01
ONLINE
PZEM L5-02 PWR-L5-02
OFFLINE
PZEM L5-03 PWR-L5-03
OFFLINE
PZEM L5-04 PWR-L5-04
OFFLINE
REPORT FILTER

Periode & Sensor

DATABASE HISTORY
RESET
QUICK RANGE Hari ini 7 hari 30 hari
PERIODE08 Aug 2026sampai 06 Sep 2026
TOTAL DATA48,961sensor readings
MINIMUM-0.50sesuai filter
AVERAGE94.50sesuai filter
MAXIMUM32,564.20sesuai filter
REPORT RESULT

Data Sensor

08/08/2026 — 06/09/2026 EXPORT CSV
NOTANGGALWAKTUDEVICECHANNELSENSORVALUEUNIT
2401 06/09/2026 17:28:00 MB-L5-01Mainboard Lantai 5 L5-HFT-01 Heat Flow Temperature 1 28.60 °C
2402 06/09/2026 17:28:00 MB-L5-01Mainboard Lantai 5 L5-SHT-01-RH SHT20 1 Humidity 40.50 %RH
2403 06/09/2026 17:28:00 PWR-L5-01Power Meter L5 PZEM 01 PZEM-L5-01-VOLT PZEM L5-01 Voltage 224.50 V
2404 06/09/2026 17:28:00 MB-L3-01Mainboard Lantai 3 L3-AI-05 Analog Input 5 3.12 V
2405 06/09/2026 17:28:00 PWR-L5-01Power Meter L5 PZEM 01 PZEM-L5-01-PF PZEM L5-01 Power Factor 0.40
2406 06/09/2026 17:28:00 MB-L5-01Mainboard Lantai 5 L5-LUX-02 Illuminance / LUX 2 486.40 lux
2407 06/09/2026 17:28:00 MB-L3-01Mainboard Lantai 3 L3-LUX-05 Illuminance / LUX 5 165.10 lux
2408 06/09/2026 17:28:00 MB-L3-01Mainboard Lantai 3 L3-SHT-01-RH SHT20 1 Humidity 42.00 %RH
2409 06/09/2026 17:28:00 MB-L3-01Mainboard Lantai 3 L3-LUX-04 Illuminance / LUX 4 32.50 lux
2410 06/09/2026 17:28:00 MB-L3-01Mainboard Lantai 3 L3-SHT-02-T SHT20 2 Temperature 29.70 °C
2411 06/09/2026 17:28:00 MB-L5-01Mainboard Lantai 5 L5-BGT-01 Black Globe Temperature 1 28.00 °C
2412 06/09/2026 17:28:00 MB-L5-01Mainboard Lantai 5 L5-HFT-02 Heat Flow Temperature 2 27.80 °C
2413 06/09/2026 17:28:00 MB-L5-01Mainboard Lantai 5 L5-AI-04 Analog Input 4 3.05 V
2414 06/09/2026 17:28:00 MB-L3-01Mainboard Lantai 3 L3-SHT-02-RH SHT20 2 Humidity 41.50 %RH
2415 06/09/2026 17:28:00 PWR-L5-01Power Meter L5 PZEM 01 PZEM-L5-01-CURR PZEM L5-01 Current 0.11 A
2416 06/09/2026 17:28:00 MB-L3-01Mainboard Lantai 3 L3-AI-06 Analog Input 6 3.12 V
2417 06/09/2026 17:28:00 WS-MOD-01Weather Station Module WS-PRES Tekanan Udara 909.00 hPa
2418 06/09/2026 17:28:00 MB-L3-01Mainboard Lantai 3 L3-LUX-01 Illuminance / LUX 1 29.40 lux
2419 06/09/2026 17:28:00 MB-L5-01Mainboard Lantai 5 L5-LUX-06 Illuminance / LUX 6 647.40 lux
2420 06/09/2026 17:28:00 MB-L3-01Mainboard Lantai 3 L3-LUX-02 Illuminance / LUX 2 47.30 lux
2421 06/09/2026 17:28:00 MB-L5-01Mainboard Lantai 5 L5-SHT-01-T SHT20 1 Temperature 30.50 °C
2422 06/09/2026 17:28:00 MB-L5-01Mainboard Lantai 5 L5-RAD-02 Radiation 2 1.00 W/m²
2423 06/09/2026 17:28:00 MB-L5-01Mainboard Lantai 5 L5-BGT-02 Black Globe Temperature 2 31.60 °C
2424 06/09/2026 17:28:00 MB-L5-01Mainboard Lantai 5 L5-AI-05 Analog Input 5 3.05 V
2425 06/09/2026 17:28:00 MB-L5-01Mainboard Lantai 5 L5-LUX-04 Illuminance / LUX 4 466.90 lux
2426 06/09/2026 17:28:00 MB-L3-01Mainboard Lantai 3 L3-AI-01 Analog Input 1 3.12 V
2427 06/09/2026 17:28:00 PWR-L5-01Power Meter L5 PZEM 01 PZEM-L5-01-POWER PZEM L5-01 Active Power 9.70 W
2428 06/09/2026 17:28:00 MB-L3-01Mainboard Lantai 3 L3-SHT-03-T SHT20 3 Temperature 29.70 °C
2429 06/09/2026 17:28:00 WS-MOD-01Weather Station Module WS-RH Kelembapan Udara 59.00 %RH
2430 06/09/2026 17:28:00 MB-L5-01Mainboard Lantai 5 L5-SHT-03-RH SHT20 3 Humidity 41.40 %RH
2431 06/09/2026 17:28:00 MB-L5-01Mainboard Lantai 5 L5-AI-01 Analog Input 1 3.05 V
2432 06/09/2026 17:28:00 MB-L3-01Mainboard Lantai 3 L3-RAD-01 Radiation 1 1.00 W/m²
2433 06/09/2026 17:28:00 MB-L5-01Mainboard Lantai 5 L5-LUX-01 Illuminance / LUX 1 359.20 lux
2434 06/09/2026 17:28:00 MB-L3-01Mainboard Lantai 3 L3-AI-02 Analog Input 2 3.12 V
2435 06/09/2026 17:28:00 MB-L5-01Mainboard Lantai 5 L5-BGT-03 Black Globe Temperature 3 27.60 °C
2436 06/09/2026 17:28:00 MB-L5-01Mainboard Lantai 5 L5-RAD-01 Radiation 1 1.00 W/m²
2437 06/09/2026 17:28:00 MB-L3-01Mainboard Lantai 3 L3-LUX-06 Illuminance / LUX 6 98.50 lux
2438 06/09/2026 17:28:00 MB-L5-01Mainboard Lantai 5 L5-AI-06 Analog Input 6 3.05 V
2439 06/09/2026 17:28:00 MB-L5-01Mainboard Lantai 5 L5-ST-01 Surface Temperature 1 28.60 °C
2440 06/09/2026 17:28:00 MB-L5-01Mainboard Lantai 5 L5-LUX-03 Illuminance / LUX 3 669.40 lux
2441 06/09/2026 17:28:00 PWR-L5-01Power Meter L5 PZEM 01 PZEM-L5-01-ENERGY PZEM L5-01 Energy 0.01 kWh
2442 06/09/2026 17:28:00 MB-L3-01Mainboard Lantai 3 L3-SHT-01-T SHT20 1 Temperature 29.60 °C
2443 06/09/2026 17:28:00 MB-L5-01Mainboard Lantai 5 L5-SHT-03-T SHT20 3 Temperature 30.40 °C
2444 06/09/2026 17:28:00 MB-L3-01Mainboard Lantai 3 L3-SHT-03-RH SHT20 3 Humidity 42.00 %RH
2445 06/09/2026 17:28:00 WS-MOD-01Weather Station Module WS-TEMP Suhu Udara 24.40 °C
2446 06/09/2026 17:28:00 MB-L5-01Mainboard Lantai 5 L5-AI-02 Analog Input 2 3.05 V
2447 06/09/2026 17:28:00 MB-L3-01Mainboard Lantai 3 L3-AI-03 Analog Input 3 3.12 V
2448 06/09/2026 17:28:00 MB-L5-01Mainboard Lantai 5 L5-ST-02 Surface Temperature 2 28.00 °C
2449 06/09/2026 17:28:00 MB-L3-01Mainboard Lantai 3 L3-RAD-02 Radiation 2 1.00 W/m²
2450 06/09/2026 17:27:00 PWR-L5-01Power Meter L5 PZEM 01 PZEM-L5-01-PF PZEM L5-01 Power Factor 0.40
2451 06/09/2026 17:27:00 MB-L5-01Mainboard Lantai 5 L5-LUX-02 Illuminance / LUX 2 497.00 lux
2452 06/09/2026 17:27:00 MB-L3-01Mainboard Lantai 3 L3-LUX-05 Illuminance / LUX 5 174.90 lux
2453 06/09/2026 17:27:00 MB-L3-01Mainboard Lantai 3 L3-SHT-01-RH SHT20 1 Humidity 41.90 %RH
2454 06/09/2026 17:27:00 MB-L3-01Mainboard Lantai 3 L3-LUX-04 Illuminance / LUX 4 34.70 lux
2455 06/09/2026 17:27:00 MB-L3-01Mainboard Lantai 3 L3-SHT-02-T SHT20 2 Temperature 29.70 °C
2456 06/09/2026 17:27:00 MB-L5-01Mainboard Lantai 5 L5-BGT-01 Black Globe Temperature 1 28.10 °C
2457 06/09/2026 17:27:00 MB-L5-01Mainboard Lantai 5 L5-HFT-02 Heat Flow Temperature 2 27.90 °C
2458 06/09/2026 17:27:00 MB-L5-01Mainboard Lantai 5 L5-AI-04 Analog Input 4 3.05 V
2459 06/09/2026 17:27:00 MB-L3-01Mainboard Lantai 3 L3-SHT-02-RH SHT20 2 Humidity 41.60 %RH
2460 06/09/2026 17:27:00 PWR-L5-01Power Meter L5 PZEM 01 PZEM-L5-01-CURR PZEM L5-01 Current 0.11 A
2461 06/09/2026 17:27:00 MB-L3-01Mainboard Lantai 3 L3-AI-06 Analog Input 6 3.12 V
2462 06/09/2026 17:27:00 WS-MOD-01Weather Station Module WS-PRES Tekanan Udara 909.00 hPa
2463 06/09/2026 17:27:00 MB-L3-01Mainboard Lantai 3 L3-LUX-01 Illuminance / LUX 1 31.10 lux
2464 06/09/2026 17:27:00 MB-L5-01Mainboard Lantai 5 L5-LUX-06 Illuminance / LUX 6 655.80 lux
2465 06/09/2026 17:27:00 MB-L3-01Mainboard Lantai 3 L3-LUX-02 Illuminance / LUX 2 50.20 lux
2466 06/09/2026 17:27:00 MB-L5-01Mainboard Lantai 5 L5-SHT-01-T SHT20 1 Temperature 30.50 °C
2467 06/09/2026 17:27:00 MB-L5-01Mainboard Lantai 5 L5-RAD-02 Radiation 2 1.00 W/m²
2468 06/09/2026 17:27:00 MB-L5-01Mainboard Lantai 5 L5-BGT-02 Black Globe Temperature 2 27.80 °C
2469 06/09/2026 17:27:00 MB-L5-01Mainboard Lantai 5 L5-AI-05 Analog Input 5 3.05 V
2470 06/09/2026 17:27:00 MB-L5-01Mainboard Lantai 5 L5-LUX-04 Illuminance / LUX 4 471.70 lux
2471 06/09/2026 17:27:00 MB-L3-01Mainboard Lantai 3 L3-AI-01 Analog Input 1 3.12 V
2472 06/09/2026 17:27:00 PWR-L5-01Power Meter L5 PZEM 01 PZEM-L5-01-POWER PZEM L5-01 Active Power 9.70 W
2473 06/09/2026 17:27:00 MB-L3-01Mainboard Lantai 3 L3-SHT-03-T SHT20 3 Temperature 29.60 °C
2474 06/09/2026 17:27:00 WS-MOD-01Weather Station Module WS-RH Kelembapan Udara 58.80 %RH
2475 06/09/2026 17:27:00 MB-L5-01Mainboard Lantai 5 L5-SHT-03-RH SHT20 3 Humidity 41.30 %RH
2476 06/09/2026 17:27:00 MB-L5-01Mainboard Lantai 5 L5-AI-01 Analog Input 1 3.05 V
2477 06/09/2026 17:27:00 MB-L3-01Mainboard Lantai 3 L3-RAD-01 Radiation 1 1.00 W/m²
2478 06/09/2026 17:27:00 MB-L5-01Mainboard Lantai 5 L5-LUX-01 Illuminance / LUX 1 365.20 lux
2479 06/09/2026 17:27:00 MB-L3-01Mainboard Lantai 3 L3-AI-02 Analog Input 2 3.12 V
2480 06/09/2026 17:27:00 MB-L5-01Mainboard Lantai 5 L5-BGT-03 Black Globe Temperature 3 27.90 °C
2481 06/09/2026 17:27:00 MB-L5-01Mainboard Lantai 5 L5-RAD-01 Radiation 1 1.00 W/m²
2482 06/09/2026 17:27:00 MB-L3-01Mainboard Lantai 3 L3-LUX-06 Illuminance / LUX 6 102.30 lux
2483 06/09/2026 17:27:00 MB-L5-01Mainboard Lantai 5 L5-AI-06 Analog Input 6 3.05 V
2484 06/09/2026 17:27:00 MB-L5-01Mainboard Lantai 5 L5-ST-01 Surface Temperature 1 28.70 °C
2485 06/09/2026 17:27:00 MB-L5-01Mainboard Lantai 5 L5-LUX-03 Illuminance / LUX 3 690.70 lux
2486 06/09/2026 17:27:00 PWR-L5-01Power Meter L5 PZEM 01 PZEM-L5-01-ENERGY PZEM L5-01 Energy 0.01 kWh
2487 06/09/2026 17:27:00 MB-L3-01Mainboard Lantai 3 L3-SHT-01-T SHT20 1 Temperature 29.50 °C
2488 06/09/2026 17:27:00 MB-L5-01Mainboard Lantai 5 L5-SHT-03-T SHT20 3 Temperature 30.40 °C
2489 06/09/2026 17:27:00 MB-L3-01Mainboard Lantai 3 L3-SHT-03-RH SHT20 3 Humidity 42.00 %RH
2490 06/09/2026 17:27:00 WS-MOD-01Weather Station Module WS-TEMP Suhu Udara 24.50 °C
2491 06/09/2026 17:27:00 MB-L5-01Mainboard Lantai 5 L5-AI-02 Analog Input 2 3.05 V
2492 06/09/2026 17:27:00 MB-L3-01Mainboard Lantai 3 L3-AI-03 Analog Input 3 3.12 V
2493 06/09/2026 17:27:00 MB-L5-01Mainboard Lantai 5 L5-ST-02 Surface Temperature 2 28.20 °C
2494 06/09/2026 17:27:00 MB-L3-01Mainboard Lantai 3 L3-RAD-02 Radiation 2 1.00 W/m²
2495 06/09/2026 17:27:00 PWR-L5-01Power Meter L5 PZEM 01 PZEM-L5-01-FREQ PZEM L5-01 Frequency 50.00 Hz
2496 06/09/2026 17:27:00 MB-L5-01Mainboard Lantai 5 L5-SHT-02-RH SHT20 2 Humidity 42.30 %RH
2497 06/09/2026 17:27:00 MB-L3-01Mainboard Lantai 3 L3-AI-04 Analog Input 4 3.12 V
2498 06/09/2026 17:27:00 MB-L3-01Mainboard Lantai 3 L3-LUX-03 Illuminance / LUX 3 59.90 lux
2499 06/09/2026 17:27:00 MB-L5-01Mainboard Lantai 5 L5-SHT-02-T SHT20 2 Temperature 29.90 °C
2500 06/09/2026 17:27:00 MB-L5-01Mainboard Lantai 5 L5-LUX-05 Illuminance / LUX 5 595.00 lux
Menampilkan maksimal 100 data per halaman